KTOA/TOA METAR and TAF weather

Enter ICAO airport designator
Station Type Date Time Source
KTOA METAR 2020/01/28 03:47 UTC NOAA

KTOA 280347Z 21008KT 10SM FEW020 16/06 A3019 RMK LAST


Station Type Date Time Source
KTOA Decoded METAR 2020/01/28 03:47 UTC NOAA

Torrance, Zamperini Field Airport, CA, United States (KTOA) 33-48N 118-20W
Jan 27, 2020 - 10:47 PM EST / 2020.01.28 0347 UTC
Wind: from the SSW (210 degrees) at 9 MPH (8 KT):0
Visibility: 10 mile(s):0
Sky conditions: mostly clear
Temperature: 60 F (16 C)
Dew Point: 42 F (6 C)
Relative Humidity: 51%
Pressure (altimeter): 30.19 in. Hg (1022 hPa)
ob: KTOA 280347Z 21008KT 10SM FEW020 16/06 A3019 RMK LAST
cycle: 4

Station Type Date Time Source
KTOA TAF UTC NOAA

Error!

Example: see airport list